sensor_id;sensor_type;location;lat;lon;timestamp;P1;durP1;ratioP1;P2;durP2;ratioP2
65613;SDS011;52283;49.292;10.572;2023-06-22T00:01:59;7.60;;;6.28;;
65613;SDS011;52283;49.292;10.572;2023-06-22T00:04:26;9.57;;;8.02;;
65613;SDS011;52283;49.292;10.572;2023-06-22T00:06:53;8.60;;;6.47;;
65613;SDS011;52283;49.292;10.572;2023-06-22T00:09:19;8.45;;;6.68;;
65613;SDS011;52283;49.292;10.572;2023-06-22T00:11:46;7.60;;;6.50;;
65613;SDS011;52283;49.292;10.572;2023-06-22T00:14:14;9.82;;;6.82;;
65613;SDS011;52283;49.292;10.572;2023-06-22T00:16:40;11.50;;;7.15;;
65613;SDS011;52283;49.292;10.572;2023-06-22T00:19:08;6.90;;;6.20;;
65613;SDS011;52283;49.292;10.572;2023-06-22T00:21:36;8.50;;;5.93;;
65613;SDS011;52283;49.292;10.572;2023-06-22T00:24:03;9.45;;;6.28;;
65613;SDS011;52283;49.292;10.572;2023-06-22T00:26:31;8.32;;;6.28;;
65613;SDS011;52283;49.292;10.572;2023-06-22T00:28:57;7.65;;;6.72;;
65613;SDS011;52283;49.292;10.572;2023-06-22T00:31:25;9.27;;;6.90;;
65613;SDS011;52283;49.292;10.572;2023-06-22T00:33:52;11.68;;;6.70;;
65613;SDS011;52283;49.292;10.572;2023-06-22T00:36:18;9.65;;;6.70;;
65613;SDS011;52283;49.292;10.572;2023-06-22T00:38:45;7.72;;;6.43;;
65613;SDS011;52283;49.292;10.572;2023-06-22T00:41:11;9.15;;;6.47;;
65613;SDS011;52283;49.292;10.572;2023-06-22T00:43:38;9.38;;;6.50;;
65613;SDS011;52283;49.292;10.572;2023-06-22T00:46:07;8.82;;;6.40;;
65613;SDS011;52283;49.292;10.572;2023-06-22T00:48:35;8.02;;;7.20;;
65613;SDS011;52283;49.292;10.572;2023-06-22T00:51:02;7.70;;;6.32;;
65613;SDS011;52283;49.292;10.572;2023-06-22T00:53:28;9.40;;;6.47;;
65613;SDS011;52283;49.292;10.572;2023-06-22T00:55:58;9.88;;;7.00;;
65613;SDS011;52283;49.292;10.572;2023-06-22T00:58:25;9.13;;;6.63;;
65613;SDS011;52283;49.292;10.572;2023-06-22T01:00:51;9.13;;;7.88;;
65613;SDS011;52283;49.292;10.572;2023-06-22T01:03:18;13.32;;;7.70;;
65613;SDS011;52283;49.292;10.572;2023-06-22T01:05:47;8.90;;;7.63;;
65613;SDS011;52283;49.292;10.572;2023-06-22T01:08:23;13.10;;;8.43;;
65613;SDS011;52283;49.292;10.572;2023-06-22T01:10:58;11.43;;;9.18;;
65613;SDS011;52283;49.292;10.572;2023-06-22T01:13:44;14.50;;;9.63;;
65613;SDS011;52283;49.292;10.572;2023-06-22T01:16:16;13.70;;;10.02;;
65613;SDS011;52283;49.292;10.572;2023-06-22T01:21:17;14.00;;;10.05;;
65613;SDS011;52283;49.292;10.572;2023-06-22T01:23:51;17.70;;;9.75;;
65613;SDS011;52283;49.292;10.572;2023-06-22T01:26:28;12.07;;;10.00;;
65613;SDS011;52283;49.292;10.572;2023-06-22T01:29:06;12.82;;;10.13;;
65613;SDS011;52283;49.292;10.572;2023-06-22T01:31:38;13.70;;;9.38;;
65613;SDS011;52283;49.292;10.572;2023-06-22T01:34:06;14.32;;;10.10;;
65613;SDS011;52283;49.292;10.572;2023-06-22T01:36:34;13.48;;;9.00;;
65613;SDS011;52283;49.292;10.572;2023-06-22T01:39:02;10.88;;;8.57;;
65613;SDS011;52283;49.292;10.572;2023-06-22T01:41:33;11.38;;;9.13;;
65613;SDS011;52283;49.292;10.572;2023-06-22T01:44:02;14.27;;;9.50;;
65613;SDS011;52283;49.292;10.572;2023-06-22T01:46:32;11.82;;;10.25;;
65613;SDS011;52283;49.292;10.572;2023-06-22T01:49:00;12.60;;;9.00;;
65613;SDS011;52283;49.292;10.572;2023-06-22T01:51:28;15.25;;;10.18;;
65613;SDS011;52283;49.292;10.572;2023-06-22T01:53:54;14.88;;;11.93;;
65613;SDS011;52283;49.292;10.572;2023-06-22T01:56:21;14.60;;;10.95;;
65613;SDS011;52283;49.292;10.572;2023-06-22T01:58:49;16.98;;;11.20;;
65613;SDS011;52283;49.292;10.572;2023-06-22T02:01:22;16.05;;;11.73;;
65613;SDS011;52283;49.292;10.572;2023-06-22T02:03:56;15.45;;;10.00;;
65613;SDS011;52283;49.292;10.572;2023-06-22T02:06:30;15.27;;;9.27;;
65613;SDS011;52283;49.292;10.572;2023-06-22T02:09:02;15.00;;;10.32;;
65613;SDS011;52283;49.292;10.572;2023-06-22T02:11:34;16.13;;;11.90;;
65613;SDS011;52283;49.292;10.572;2023-06-22T02:14:02;20.80;;;12.93;;
65613;SDS011;52283;49.292;10.572;2023-06-22T02:16:30;19.38;;;12.57;;
65613;SDS011;52283;49.292;10.572;2023-06-22T02:19:00;17.10;;;11.20;;
65613;SDS011;52283;49.292;10.572;2023-06-22T02:23:55;11.60;;;7.95;;
65613;SDS011;52283;49.292;10.572;2023-06-22T02:26:21;9.25;;;7.90;;
65613;SDS011;52283;49.292;10.572;2023-06-22T02:28:49;11.65;;;8.10;;
65613;SDS011;52283;49.292;10.572;2023-06-22T02:31:16;13.27;;;10.30;;
65613;SDS011;52283;49.292;10.572;2023-06-22T02:33:43;12.23;;;8.80;;
65613;SDS011;52283;49.292;10.572;2023-06-22T02:36:11;14.07;;;10.38;;
65613;SDS011;52283;49.292;10.572;2023-06-22T02:38:38;13.45;;;10.27;;
65613;SDS011;52283;49.292;10.572;2023-06-22T02:41:04;14.88;;;11.02;;
65613;SDS011;52283;49.292;10.572;2023-06-22T02:43:31;15.00;;;10.13;;
65613;SDS011;52283;49.292;10.572;2023-06-22T02:45:58;17.63;;;11.70;;
65613;SDS011;52283;49.292;10.572;2023-06-22T02:48:24;15.05;;;10.98;;
65613;SDS011;52283;49.292;10.572;2023-06-22T02:50:51;17.63;;;11.77;;
65613;SDS011;52283;49.292;10.572;2023-06-22T02:53:18;16.20;;;11.55;;
65613;SDS011;52283;49.292;10.572;2023-06-22T02:55:45;24.90;;;13.30;;
65613;SDS011;52283;49.292;10.572;2023-06-22T02:58:12;15.60;;;12.25;;
65613;SDS011;52283;49.292;10.572;2023-06-22T03:00:38;15.50;;;12.07;;
65613;SDS011;52283;49.292;10.572;2023-06-22T03:03:05;18.55;;;13.27;;
65613;SDS011;52283;49.292;10.572;2023-06-22T03:05:31;16.90;;;13.30;;
65613;SDS011;52283;49.292;10.572;2023-06-22T03:08:00;19.10;;;13.63;;
65613;SDS011;52283;49.292;10.572;2023-06-22T03:10:28;16.98;;;12.10;;
65613;SDS011;52283;49.292;10.572;2023-06-22T03:12:54;16.70;;;12.60;;
65613;SDS011;52283;49.292;10.572;2023-06-22T03:15:21;17.33;;;12.95;;
65613;SDS011;52283;49.292;10.572;2023-06-22T03:17:47;17.08;;;12.65;;
65613;SDS011;52283;49.292;10.572;2023-06-22T03:20:14;18.38;;;12.60;;
65613;SDS011;52283;49.292;10.572;2023-06-22T03:22:41;17.17;;;12.50;;
65613;SDS011;52283;49.292;10.572;2023-06-22T03:25:09;17.60;;;12.52;;
65613;SDS011;52283;49.292;10.572;2023-06-22T03:27:39;14.45;;;12.00;;
65613;SDS011;52283;49.292;10.572;2023-06-22T03:30:06;19.02;;;14.18;;
65613;SDS011;52283;49.292;10.572;2023-06-22T03:32:34;17.48;;;12.48;;
65613;SDS011;52283;49.292;10.572;2023-06-22T03:35:00;17.30;;;11.57;;
65613;SDS011;52283;49.292;10.572;2023-06-22T03:37:27;19.75;;;11.75;;
65613;SDS011;52283;49.292;10.572;2023-06-22T03:39:54;19.95;;;13.15;;
65613;SDS011;52283;49.292;10.572;2023-06-22T03:42:21;21.60;;;13.90;;
65613;SDS011;52283;49.292;10.572;2023-06-22T03:44:49;17.27;;;12.73;;
65613;SDS011;52283;49.292;10.572;2023-06-22T03:47:15;20.60;;;14.68;;
65613;SDS011;52283;49.292;10.572;2023-06-22T03:49:43;20.10;;;14.82;;
65613;SDS011;52283;49.292;10.572;2023-06-22T03:52:09;28.42;;;15.82;;
65613;SDS011;52283;49.292;10.572;2023-06-22T03:54:36;27.13;;;16.73;;
65613;SDS011;52283;49.292;10.572;2023-06-22T03:57:03;26.15;;;17.85;;
65613;SDS011;52283;49.292;10.572;2023-06-22T03:59:33;22.57;;;17.23;;
65613;SDS011;52283;49.292;10.572;2023-06-22T04:02:01;24.92;;;17.67;;
65613;SDS011;52283;49.292;10.572;2023-06-22T04:04:28;28.08;;;20.17;;
65613;SDS011;52283;49.292;10.572;2023-06-22T04:06:54;26.83;;;19.55;;
65613;SDS011;52283;49.292;10.572;2023-06-22T04:09:21;26.65;;;18.92;;
65613;SDS011;52283;49.292;10.572;2023-06-22T04:11:47;23.95;;;17.23;;
65613;SDS011;52283;49.292;10.572;2023-06-22T04:14:14;26.58;;;18.15;;
65613;SDS011;52283;49.292;10.572;2023-06-22T04:16:40;21.35;;;16.85;;
65613;SDS011;52283;49.292;10.572;2023-06-22T04:19:08;23.85;;;16.45;;
65613;SDS011;52283;49.292;10.572;2023-06-22T04:21:39;21.40;;;14.07;;
65613;SDS011;52283;49.292;10.572;2023-06-22T04:24:06;20.42;;;14.40;;
65613;SDS011;52283;49.292;10.572;2023-06-22T04:26:32;22.05;;;15.23;;
65613;SDS011;52283;49.292;10.572;2023-06-22T04:29:02;22.90;;;15.85;;
65613;SDS011;52283;49.292;10.572;2023-06-22T04:31:30;22.42;;;13.95;;
65613;SDS011;52283;49.292;10.572;2023-06-22T04:34:02;18.15;;;14.05;;
65613;SDS011;52283;49.292;10.572;2023-06-22T04:36:33;20.25;;;14.13;;
65613;SDS011;52283;49.292;10.572;2023-06-22T04:41:29;19.00;;;13.05;;
65613;SDS011;52283;49.292;10.572;2023-06-22T04:44:07;18.65;;;15.35;;
65613;SDS011;52283;49.292;10.572;2023-06-22T04:46:34;20.10;;;14.13;;
65613;SDS011;52283;49.292;10.572;2023-06-22T04:49:03;20.63;;;15.02;;
65613;SDS011;52283;49.292;10.572;2023-06-22T04:51:31;22.58;;;14.30;;
65613;SDS011;52283;49.292;10.572;2023-06-22T04:53:59;16.58;;;13.68;;
65613;SDS011;52283;49.292;10.572;2023-06-22T04:56:25;19.10;;;15.13;;
65613;SDS011;52283;49.292;10.572;2023-06-22T04:58:53;17.10;;;12.43;;
65613;SDS011;52283;49.292;10.572;2023-06-22T05:01:22;18.60;;;11.70;;
65613;SDS011;52283;49.292;10.572;2023-06-22T05:03:48;11.40;;;9.98;;
65613;SDS011;52283;49.292;10.572;2023-06-22T05:06:15;16.60;;;10.77;;
65613;SDS011;52283;49.292;10.572;2023-06-22T05:08:42;18.45;;;10.65;;
65613;SDS011;52283;49.292;10.572;2023-06-22T05:11:10;14.32;;;11.05;;
65613;SDS011;52283;49.292;10.572;2023-06-22T05:13:37;13.98;;;9.68;;
65613;SDS011;52283;49.292;10.572;2023-06-22T05:16:04;15.85;;;10.65;;
65613;SDS011;52283;49.292;10.572;2023-06-22T05:18:31;10.60;;;8.57;;
65613;SDS011;52283;49.292;10.572;2023-06-22T05:20:57;11.70;;;10.32;;
65613;SDS011;52283;49.292;10.572;2023-06-22T05:23:24;12.90;;;9.85;;
65613;SDS011;52283;49.292;10.572;2023-06-22T05:25:51;12.88;;;9.43;;
65613;SDS011;52283;49.292;10.572;2023-06-22T05:28:20;11.63;;;9.70;;
65613;SDS011;52283;49.292;10.572;2023-06-22T05:30:47;12.05;;;9.20;;
65613;SDS011;52283;49.292;10.572;2023-06-22T05:33:14;12.68;;;9.82;;
65613;SDS011;52283;49.292;10.572;2023-06-22T05:35:40;15.20;;;9.65;;
65613;SDS011;52283;49.292;10.572;2023-06-22T05:38:07;10.57;;;9.45;;
65613;SDS011;52283;49.292;10.572;2023-06-22T05:40:33;14.55;;;9.55;;
65613;SDS011;52283;49.292;10.572;2023-06-22T05:43:00;12.27;;;9.57;;
65613;SDS011;52283;49.292;10.572;2023-06-22T05:45:28;12.30;;;9.18;;
65613;SDS011;52283;49.292;10.572;2023-06-22T05:47:54;15.25;;;8.75;;
65613;SDS011;52283;49.292;10.572;2023-06-22T05:50:21;13.18;;;8.85;;
65613;SDS011;52283;49.292;10.572;2023-06-22T05:52:47;10.40;;;8.65;;
65613;SDS011;52283;49.292;10.572;2023-06-22T05:55:14;10.32;;;8.38;;
65613;SDS011;52283;49.292;10.572;2023-06-22T05:57:43;10.30;;;7.88;;
65613;SDS011;52283;49.292;10.572;2023-06-22T06:00:10;12.10;;;7.95;;
65613;SDS011;52283;49.292;10.572;2023-06-22T06:02:39;10.20;;;7.63;;
65613;SDS011;52283;49.292;10.572;2023-06-22T06:05:08;8.73;;;7.67;;
65613;SDS011;52283;49.292;10.572;2023-06-22T06:07:35;10.38;;;8.00;;
65613;SDS011;52283;49.292;10.572;2023-06-22T06:10:02;10.20;;;6.85;;
65613;SDS011;52283;49.292;10.572;2023-06-22T06:12:29;9.38;;;7.45;;
65613;SDS011;52283;49.292;10.572;2023-06-22T06:14:56;13.50;;;8.70;;
65613;SDS011;52283;49.292;10.572;2023-06-22T06:17:22;9.95;;;8.75;;
65613;SDS011;52283;49.292;10.572;2023-06-22T06:19:50;10.90;;;8.00;;
65613;SDS011;52283;49.292;10.572;2023-06-22T06:22:17;11.60;;;8.65;;
65613;SDS011;52283;49.292;10.572;2023-06-22T06:24:46;11.27;;;7.97;;
65613;SDS011;52283;49.292;10.572;2023-06-22T06:27:12;9.52;;;8.05;;
65613;SDS011;52283;49.292;10.572;2023-06-22T06:29:39;11.80;;;8.55;;
65613;SDS011;52283;49.292;10.572;2023-06-22T06:32:06;9.70;;;8.00;;
65613;SDS011;52283;49.292;10.572;2023-06-22T06:34:33;11.63;;;7.80;;
65613;SDS011;52283;49.292;10.572;2023-06-22T06:37:01;13.40;;;9.48;;
65613;SDS011;52283;49.292;10.572;2023-06-22T06:39:28;10.18;;;8.95;;
65613;SDS011;52283;49.292;10.572;2023-06-22T06:41:54;11.73;;;7.68;;
65613;SDS011;52283;49.292;10.572;2023-06-22T06:44:21;9.75;;;7.97;;
65613;SDS011;52283;49.292;10.572;2023-06-22T06:46:47;11.27;;;8.63;;
65613;SDS011;52283;49.292;10.572;2023-06-22T06:49:14;9.40;;;7.53;;
65613;SDS011;52283;49.292;10.572;2023-06-22T06:51:40;9.70;;;7.78;;
65613;SDS011;52283;49.292;10.572;2023-06-22T06:54:08;7.25;;;6.43;;
65613;SDS011;52283;49.292;10.572;2023-06-22T06:56:34;8.68;;;6.55;;
65613;SDS011;52283;49.292;10.572;2023-06-22T06:59:01;9.35;;;6.47;;
65613;SDS011;52283;49.292;10.572;2023-06-22T07:01:27;9.73;;;6.93;;
65613;SDS011;52283;49.292;10.572;2023-06-22T07:06:24;9.30;;;6.05;;
65613;SDS011;52283;49.292;10.572;2023-06-22T07:08:54;11.85;;;5.97;;
65613;SDS011;52283;49.292;10.572;2023-06-22T07:11:22;12.65;;;6.22;;
65613;SDS011;52283;49.292;10.572;2023-06-22T07:13:48;6.85;;;5.13;;
65613;SDS011;52283;49.292;10.572;2023-06-22T07:16:15;10.80;;;6.03;;
65613;SDS011;52283;49.292;10.572;2023-06-22T07:18:41;8.70;;;5.70;;
65613;SDS011;52283;49.292;10.572;2023-06-22T07:21:08;8.07;;;5.90;;
65613;SDS011;52283;49.292;10.572;2023-06-22T07:23:34;9.57;;;5.75;;
65613;SDS011;52283;49.292;10.572;2023-06-22T07:26:01;7.30;;;6.05;;
65613;SDS011;52283;49.292;10.572;2023-06-22T07:28:29;8.23;;;5.13;;
65613;SDS011;52283;49.292;10.572;2023-06-22T07:30:56;7.13;;;6.20;;
65613;SDS011;52283;49.292;10.572;2023-06-22T07:33:22;5.90;;;4.90;;
65613;SDS011;52283;49.292;10.572;2023-06-22T07:35:49;7.57;;;5.40;;
65613;SDS011;52283;49.292;10.572;2023-06-22T07:38:17;6.20;;;4.85;;
65613;SDS011;52283;49.292;10.572;2023-06-22T07:40:43;6.88;;;5.05;;
65613;SDS011;52283;49.292;10.572;2023-06-22T07:43:10;5.72;;;4.75;;
65613;SDS011;52283;49.292;10.572;2023-06-22T07:45:38;8.18;;;5.47;;
65613;SDS011;52283;49.292;10.572;2023-06-22T07:48:07;6.22;;;4.30;;
65613;SDS011;52283;49.292;10.572;2023-06-22T07:50:33;9.25;;;4.57;;
65613;SDS011;52283;49.292;10.572;2023-06-22T07:52:59;7.28;;;4.60;;
65613;SDS011;52283;49.292;10.572;2023-06-22T07:55:26;11.20;;;4.88;;
65613;SDS011;52283;49.292;10.572;2023-06-22T07:57:52;5.32;;;4.30;;
65613;SDS011;52283;49.292;10.572;2023-06-22T08:00:19;6.43;;;3.72;;
65613;SDS011;52283;49.292;10.572;2023-06-22T08:02:47;7.15;;;5.00;;
65613;SDS011;52283;49.292;10.572;2023-06-22T08:05:14;6.45;;;4.53;;
65613;SDS011;52283;49.292;10.572;2023-06-22T08:07:42;5.00;;;4.60;;
65613;SDS011;52283;49.292;10.572;2023-06-22T08:10:10;7.47;;;4.45;;
65613;SDS011;52283;49.292;10.572;2023-06-22T08:12:37;7.53;;;5.28;;
65613;SDS011;52283;49.292;10.572;2023-06-22T08:15:04;7.60;;;4.25;;
65613;SDS011;52283;49.292;10.572;2023-06-22T08:17:32;7.32;;;4.30;;
65613;SDS011;52283;49.292;10.572;2023-06-22T08:20:00;8.45;;;4.82;;
65613;SDS011;52283;49.292;10.572;2023-06-22T08:22:30;4.97;;;4.45;;
65613;SDS011;52283;49.292;10.572;2023-06-22T08:24:58;4.82;;;4.18;;
65613;SDS011;52283;49.292;10.572;2023-06-22T08:27:24;8.38;;;4.47;;
65613;SDS011;52283;49.292;10.572;2023-06-22T08:29:53;6.47;;;4.72;;
65613;SDS011;52283;49.292;10.572;2023-06-22T08:32:23;8.33;;;4.67;;
65613;SDS011;52283;49.292;10.572;2023-06-22T08:34:50;4.97;;;4.22;;
65613;SDS011;52283;49.292;10.572;2023-06-22T08:37:17;9.60;;;5.40;;
65613;SDS011;52283;49.292;10.572;2023-06-22T08:39:44;6.45;;;4.15;;
65613;SDS011;52283;49.292;10.572;2023-06-22T08:42:11;8.05;;;4.78;;
65613;SDS011;52283;49.292;10.572;2023-06-22T08:44:37;6.18;;;4.10;;
65613;SDS011;52283;49.292;10.572;2023-06-22T08:47:04;6.90;;;3.83;;
65613;SDS011;52283;49.292;10.572;2023-06-22T08:49:31;8.70;;;4.60;;
65613;SDS011;52283;49.292;10.572;2023-06-22T08:51:57;7.95;;;4.95;;
65613;SDS011;52283;49.292;10.572;2023-06-22T08:54:25;7.43;;;3.70;;
65613;SDS011;52283;49.292;10.572;2023-06-22T08:56:51;8.82;;;4.22;;
65613;SDS011;52283;49.292;10.572;2023-06-22T08:59:18;6.55;;;3.72;;
65613;SDS011;52283;49.292;10.572;2023-06-22T09:01:44;7.03;;;3.65;;
65613;SDS011;52283;49.292;10.572;2023-06-22T09:04:13;6.00;;;4.35;;
65613;SDS011;52283;49.292;10.572;2023-06-22T09:06:40;8.95;;;3.95;;
65613;SDS011;52283;49.292;10.572;2023-06-22T09:09:10;8.05;;;5.40;;
65613;SDS011;52283;49.292;10.572;2023-06-22T09:11:38;6.05;;;4.18;;
65613;SDS011;52283;49.292;10.572;2023-06-22T09:14:04;5.60;;;4.13;;
65613;SDS011;52283;49.292;10.572;2023-06-22T09:16:31;6.55;;;4.03;;
65613;SDS011;52283;49.292;10.572;2023-06-22T09:18:58;9.63;;;4.38;;
65613;SDS011;52283;49.292;10.572;2023-06-22T09:21:24;8.60;;;4.85;;
65613;SDS011;52283;49.292;10.572;2023-06-22T09:23:51;7.90;;;4.35;;
65613;SDS011;52283;49.292;10.572;2023-06-22T09:26:18;5.97;;;4.70;;
65613;SDS011;52283;49.292;10.572;2023-06-22T09:28:46;6.32;;;3.80;;
65613;SDS011;52283;49.292;10.572;2023-06-22T09:31:12;11.02;;;5.18;;
65613;SDS011;52283;49.292;10.572;2023-06-22T09:33:40;5.55;;;4.32;;
65613;SDS011;52283;49.292;10.572;2023-06-22T09:36:07;4.90;;;4.28;;
65613;SDS011;52283;49.292;10.572;2023-06-22T09:38:34;4.63;;;4.22;;
65613;SDS011;52283;49.292;10.572;2023-06-22T09:41:01;7.60;;;4.43;;
65613;SDS011;52283;49.292;10.572;2023-06-22T09:43:27;6.00;;;4.25;;
65613;SDS011;52283;49.292;10.572;2023-06-22T09:45:55;7.78;;;4.35;;
65613;SDS011;52283;49.292;10.572;2023-06-22T09:48:22;7.25;;;3.78;;
65613;SDS011;52283;49.292;10.572;2023-06-22T09:50:48;13.30;;;3.40;;
65613;SDS011;52283;49.292;10.572;2023-06-22T09:53:15;9.52;;;4.43;;
65613;SDS011;52283;49.292;10.572;2023-06-22T09:55:42;16.55;;;4.38;;
65613;SDS011;52283;49.292;10.572;2023-06-22T09:58:08;6.50;;;3.97;;
65613;SDS011;52283;49.292;10.572;2023-06-22T10:00:35;9.25;;;3.78;;
65613;SDS011;52283;49.292;10.572;2023-06-22T10:03:03;8.02;;;3.72;;
65613;SDS011;52283;49.292;10.572;2023-06-22T10:05:29;8.18;;;4.10;;
65613;SDS011;52283;49.292;10.572;2023-06-22T10:07:56;9.60;;;3.90;;
65613;SDS011;52283;49.292;10.572;2023-06-22T10:10:23;7.50;;;4.30;;
65613;SDS011;52283;49.292;10.572;2023-06-22T10:12:54;9.00;;;4.07;;
65613;SDS011;52283;49.292;10.572;2023-06-22T10:15:21;8.27;;;3.88;;
65613;SDS011;52283;49.292;10.572;2023-06-22T10:17:48;6.78;;;3.53;;
65613;SDS011;52283;49.292;10.572;2023-06-22T10:20:16;6.55;;;4.03;;
65613;SDS011;52283;49.292;10.572;2023-06-22T10:22:44;9.48;;;3.67;;
65613;SDS011;52283;49.292;10.572;2023-06-22T10:25:11;11.30;;;3.53;;
65613;SDS011;52283;49.292;10.572;2023-06-22T10:27:39;8.32;;;3.78;;
65613;SDS011;52283;49.292;10.572;2023-06-22T10:30:06;6.72;;;3.60;;
65613;SDS011;52283;49.292;10.572;2023-06-22T10:32:33;11.32;;;4.15;;
65613;SDS011;52283;49.292;10.572;2023-06-22T10:34:59;6.32;;;3.90;;
65613;SDS011;52283;49.292;10.572;2023-06-22T10:37:27;7.00;;;3.47;;
65613;SDS011;52283;49.292;10.572;2023-06-22T10:39:54;7.45;;;3.88;;
65613;SDS011;52283;49.292;10.572;2023-06-22T10:42:20;8.43;;;4.07;;
65613;SDS011;52283;49.292;10.572;2023-06-22T10:44:47;7.63;;;3.40;;
65613;SDS011;52283;49.292;10.572;2023-06-22T10:47:13;7.25;;;3.83;;
65613;SDS011;52283;49.292;10.572;2023-06-22T10:49:40;9.60;;;3.55;;
65613;SDS011;52283;49.292;10.572;2023-06-22T10:52:08;9.50;;;3.58;;
65613;SDS011;52283;49.292;10.572;2023-06-22T10:54:36;8.95;;;3.97;;
65613;SDS011;52283;49.292;10.572;2023-06-22T10:57:03;8.27;;;4.38;;
65613;SDS011;52283;49.292;10.572;2023-06-22T10:59:30;5.40;;;3.60;;
65613;SDS011;52283;49.292;10.572;2023-06-22T11:01:57;7.30;;;3.58;;
65613;SDS011;52283;49.292;10.572;2023-06-22T11:04:23;5.28;;;3.67;;
65613;SDS011;52283;49.292;10.572;2023-06-22T11:06:50;9.60;;;4.72;;
65613;SDS011;52283;49.292;10.572;2023-06-22T11:09:17;8.80;;;3.88;;
65613;SDS011;52283;49.292;10.572;2023-06-22T11:11:47;7.25;;;4.15;;
65613;SDS011;52283;49.292;10.572;2023-06-22T11:14:14;7.65;;;4.00;;
65613;SDS011;52283;49.292;10.572;2023-06-22T11:16:40;5.10;;;3.80;;
65613;SDS011;52283;49.292;10.572;2023-06-22T11:19:07;8.50;;;3.67;;
65613;SDS011;52283;49.292;10.572;2023-06-22T11:21:34;8.32;;;4.13;;
65613;SDS011;52283;49.292;10.572;2023-06-22T11:24:00;9.48;;;4.28;;
65613;SDS011;52283;49.292;10.572;2023-06-22T11:26:27;8.73;;;3.80;;
65613;SDS011;52283;49.292;10.572;2023-06-22T11:28:54;8.85;;;3.83;;
65613;SDS011;52283;49.292;10.572;2023-06-22T11:31:21;5.95;;;3.38;;
65613;SDS011;52283;49.292;10.572;2023-06-22T11:33:47;8.15;;;3.92;;
65613;SDS011;52283;49.292;10.572;2023-06-22T11:36:14;8.75;;;3.72;;
65613;SDS011;52283;49.292;10.572;2023-06-22T11:38:41;10.00;;;4.35;;
65613;SDS011;52283;49.292;10.572;2023-06-22T11:41:08;9.40;;;3.65;;
65613;SDS011;52283;49.292;10.572;2023-06-22T11:43:36;9.85;;;4.20;;
65613;SDS011;52283;49.292;10.572;2023-06-22T11:46:04;12.68;;;4.72;;
65613;SDS011;52283;49.292;10.572;2023-06-22T11:48:31;8.95;;;4.28;;
65613;SDS011;52283;49.292;10.572;2023-06-22T11:50:57;11.02;;;3.85;;
65613;SDS011;52283;49.292;10.572;2023-06-22T11:53:25;10.50;;;4.38;;
65613;SDS011;52283;49.292;10.572;2023-06-22T11:55:52;7.22;;;3.85;;
65613;SDS011;52283;49.292;10.572;2023-06-22T11:58:20;7.32;;;3.88;;
65613;SDS011;52283;49.292;10.572;2023-06-22T12:00:46;10.40;;;4.25;;
65613;SDS011;52283;49.292;10.572;2023-06-22T12:03:14;11.68;;;4.10;;
65613;SDS011;52283;49.292;10.572;2023-06-22T12:05:41;10.35;;;4.18;;
65613;SDS011;52283;49.292;10.572;2023-06-22T12:08:08;8.57;;;3.95;;
65613;SDS011;52283;49.292;10.572;2023-06-22T12:10:34;9.63;;;4.40;;
65613;SDS011;52283;49.292;10.572;2023-06-22T12:13:01;7.43;;;3.85;;
65613;SDS011;52283;49.292;10.572;2023-06-22T12:15:27;11.63;;;3.92;;
65613;SDS011;52283;49.292;10.572;2023-06-22T12:17:54;11.13;;;4.30;;
65613;SDS011;52283;49.292;10.572;2023-06-22T12:20:22;7.82;;;3.85;;
65613;SDS011;52283;49.292;10.572;2023-06-22T12:22:48;8.90;;;4.18;;
65613;SDS011;52283;49.292;10.572;2023-06-22T12:25:16;15.02;;;4.38;;
65613;SDS011;52283;49.292;10.572;2023-06-22T12:27:43;13.13;;;4.85;;
65613;SDS011;52283;49.292;10.572;2023-06-22T12:30:09;10.02;;;4.20;;
65613;SDS011;52283;49.292;10.572;2023-06-22T12:32:36;7.88;;;3.88;;
65613;SDS011;52283;49.292;10.572;2023-06-22T12:35:03;10.25;;;3.70;;
65613;SDS011;52283;49.292;10.572;2023-06-22T12:37:31;13.43;;;4.38;;
65613;SDS011;52283;49.292;10.572;2023-06-22T12:39:58;16.92;;;4.78;;
65613;SDS011;52283;49.292;10.572;2023-06-22T12:42:25;10.43;;;4.00;;
65613;SDS011;52283;49.292;10.572;2023-06-22T12:44:53;11.35;;;4.45;;
65613;SDS011;52283;49.292;10.572;2023-06-22T12:47:19;9.32;;;4.40;;
65613;SDS011;52283;49.292;10.572;2023-06-22T12:49:46;10.30;;;3.80;;
65613;SDS011;52283;49.292;10.572;2023-06-22T12:52:12;11.68;;;4.05;;
65613;SDS011;52283;49.292;10.572;2023-06-22T12:54:40;12.48;;;4.70;;
65613;SDS011;52283;49.292;10.572;2023-06-22T12:57:06;7.53;;;4.32;;
65613;SDS011;52283;49.292;10.572;2023-06-22T12:59:33;15.52;;;4.93;;
65613;SDS011;52283;49.292;10.572;2023-06-22T13:02:01;9.57;;;4.07;;
65613;SDS011;52283;49.292;10.572;2023-06-22T13:04:27;8.50;;;4.03;;
65613;SDS011;52283;49.292;10.572;2023-06-22T13:06:54;9.10;;;4.00;;
65613;SDS011;52283;49.292;10.572;2023-06-22T13:09:20;6.35;;;4.07;;
65613;SDS011;52283;49.292;10.572;2023-06-22T13:11:48;7.55;;;4.50;;
65613;SDS011;52283;49.292;10.572;2023-06-22T13:14:14;10.30;;;4.30;;
65613;SDS011;52283;49.292;10.572;2023-06-22T13:16:42;12.93;;;4.40;;
65613;SDS011;52283;49.292;10.572;2023-06-22T13:19:08;9.05;;;4.28;;
65613;SDS011;52283;49.292;10.572;2023-06-22T13:21:35;14.73;;;4.65;;
65613;SDS011;52283;49.292;10.572;2023-06-22T13:24:01;13.43;;;4.05;;
65613;SDS011;52283;49.292;10.572;2023-06-22T13:26:28;9.32;;;5.00;;
65613;SDS011;52283;49.292;10.572;2023-06-22T13:28:56;11.73;;;3.97;;
65613;SDS011;52283;49.292;10.572;2023-06-22T13:31:23;7.43;;;3.90;;
65613;SDS011;52283;49.292;10.572;2023-06-22T13:33:49;12.50;;;4.45;;
65613;SDS011;52283;49.292;10.572;2023-06-22T13:36:17;13.35;;;4.50;;
65613;SDS011;52283;49.292;10.572;2023-06-22T13:38:44;13.05;;;3.83;;
65613;SDS011;52283;49.292;10.572;2023-06-22T13:41:11;9.02;;;3.75;;
65613;SDS011;52283;49.292;10.572;2023-06-22T13:43:37;13.18;;;4.93;;
65613;SDS011;52283;49.292;10.572;2023-06-22T13:46:05;11.57;;;4.88;;
65613;SDS011;52283;49.292;10.572;2023-06-22T13:48:32;11.15;;;3.85;;
65613;SDS011;52283;49.292;10.572;2023-06-22T13:50:58;10.23;;;5.32;;
65613;SDS011;52283;49.292;10.572;2023-06-22T13:53:25;15.82;;;4.45;;
65613;SDS011;52283;49.292;10.572;2023-06-22T13:55:51;16.00;;;4.28;;
65613;SDS011;52283;49.292;10.572;2023-06-22T13:58:18;9.40;;;3.88;;
65613;SDS011;52283;49.292;10.572;2023-06-22T14:00:44;10.68;;;4.05;;
65613;SDS011;52283;49.292;10.572;2023-06-22T14:03:12;16.33;;;4.15;;
65613;SDS011;52283;49.292;10.572;2023-06-22T14:05:41;10.47;;;3.97;;
65613;SDS011;52283;49.292;10.572;2023-06-22T14:08:07;6.78;;;4.00;;
65613;SDS011;52283;49.292;10.572;2023-06-22T14:10:34;11.52;;;4.40;;
65613;SDS011;52283;49.292;10.572;2023-06-22T14:13:00;14.73;;;4.95;;
65613;SDS011;52283;49.292;10.572;2023-06-22T14:15:27;10.25;;;4.38;;
65613;SDS011;52283;49.292;10.572;2023-06-22T14:17:53;10.07;;;4.47;;
65613;SDS011;52283;49.292;10.572;2023-06-22T14:20:21;9.00;;;4.15;;
65613;SDS011;52283;49.292;10.572;2023-06-22T14:22:47;14.93;;;5.45;;
65613;SDS011;52283;49.292;10.572;2023-06-22T14:25:14;8.90;;;4.35;;
65613;SDS011;52283;49.292;10.572;2023-06-22T14:27:40;9.23;;;4.13;;
65613;SDS011;52283;49.292;10.572;2023-06-22T14:30:07;11.77;;;4.82;;
65613;SDS011;52283;49.292;10.572;2023-06-22T14:32:34;10.82;;;4.95;;
65613;SDS011;52283;49.292;10.572;2023-06-22T14:35:00;10.50;;;5.95;;